sensor_id;sensor_type;location;lat;lon;timestamp;temperature;humidity
9215;DHT22;4642;51.364;6.788;2024-03-23T00:55:05;7.70;99.90
9215;DHT22;4642;51.364;6.788;2024-03-23T00:57:32;7.60;99.90
9215;DHT22;4642;51.364;6.788;2024-03-23T00:59:57;7.60;99.90
9215;DHT22;4642;51.364;6.788;2024-03-23T01:02:23;7.60;99.90
9215;DHT22;4642;51.364;6.788;2024-03-23T01:04:48;7.60;99.90
9215;DHT22;4642;51.364;6.788;2024-03-23T01:07:14;7.50;99.90
9215;DHT22;4642;51.364;6.788;2024-03-23T01:09:39;7.50;99.90
9215;DHT22;4642;51.364;6.788;2024-03-23T01:12:05;7.30;99.90
9215;DHT22;4642;51.364;6.788;2024-03-23T01:14:31;7.30;99.90
9215;DHT22;4642;51.364;6.788;2024-03-23T01:16:56;7.20;99.90
9215;DHT22;4642;51.364;6.788;2024-03-23T01:19:22;7.20;99.90
9215;DHT22;4642;51.364;6.788;2024-03-23T01:21:47;7.10;99.90
9215;DHT22;4642;51.364;6.788;2024-03-23T01:24:14;7.00;99.90
9215;DHT22;4642;51.364;6.788;2024-03-23T01:26:40;7.00;99.90
9215;DHT22;4642;51.364;6.788;2024-03-23T01:29:05;7.00;99.90
9215;DHT22;4642;51.364;6.788;2024-03-23T01:31:31;6.90;99.90
9215;DHT22;4642;51.364;6.788;2024-03-23T01:33:57;6.90;99.90
9215;DHT22;4642;51.364;6.788;2024-03-23T01:36:23;7.00;99.90
9215;DHT22;4642;51.364;6.788;2024-03-23T01:38:49;7.00;99.90
9215;DHT22;4642;51.364;6.788;2024-03-23T01:41:15;7.10;99.90
9215;DHT22;4642;51.364;6.788;2024-03-23T01:43:40;7.10;99.90
9215;DHT22;4642;51.364;6.788;2024-03-23T01:46:06;7.10;99.90
9215;DHT22;4642;51.364;6.788;2024-03-23T01:48:32;7.00;99.90
9215;DHT22;4642;51.364;6.788;2024-03-23T01:50:58;7.10;99.90
9215;DHT22;4642;51.364;6.788;2024-03-23T01:53:24;7.10;99.90
9215;DHT22;4642;51.364;6.788;2024-03-23T01:55:51;7.10;99.90
9215;DHT22;4642;51.364;6.788;2024-03-23T01:58:17;7.00;99.90
9215;DHT22;4642;51.364;6.788;2024-03-23T02:00:42;7.10;99.90
9215;DHT22;4642;51.364;6.788;2024-03-23T02:03:27;7.00;99.90
9215;DHT22;4642;51.364;6.788;2024-03-23T02:05:54;7.00;99.90
9215;DHT22;4642;51.364;6.788;2024-03-23T02:08:21;7.00;99.90
9215;DHT22;4642;51.364;6.788;2024-03-23T02:10:48;7.00;99.90
9215;DHT22;4642;51.364;6.788;2024-03-23T02:13:14;7.00;99.90
9215;DHT22;4642;51.364;6.788;2024-03-23T02:15:40;7.00;99.90
9215;DHT22;4642;51.364;6.788;2024-03-23T02:18:07;7.00;99.90
9215;DHT22;4642;51.364;6.788;2024-03-23T02:20:33;7.00;99.90
9215;DHT22;4642;51.364;6.788;2024-03-23T02:22:58;7.00;99.90
9215;DHT22;4642;51.364;6.788;2024-03-23T02:25:24;7.00;99.90
9215;DHT22;4642;51.364;6.788;2024-03-23T02:27:49;7.00;99.90
9215;DHT22;4642;51.364;6.788;2024-03-23T02:30:15;7.00;99.90
9215;DHT22;4642;51.364;6.788;2024-03-23T02:32:40;7.00;99.90
9215;DHT22;4642;51.364;6.788;2024-03-23T02:35:06;7.00;99.90
9215;DHT22;4642;51.364;6.788;2024-03-23T02:37:32;7.00;99.90
9215;DHT22;4642;51.364;6.788;2024-03-23T02:39:58;6.90;99.90
9215;DHT22;4642;51.364;6.788;2024-03-23T02:42:24;6.90;99.90
9215;DHT22;4642;51.364;6.788;2024-03-23T02:44:49;7.00;99.90
9215;DHT22;4642;51.364;6.788;2024-03-23T02:47:15;6.90;99.90
9215;DHT22;4642;51.364;6.788;2024-03-23T02:49:40;7.00;99.90
9215;DHT22;4642;51.364;6.788;2024-03-23T02:52:06;6.90;99.90
9215;DHT22;4642;51.364;6.788;2024-03-23T02:54:31;6.90;99.90
9215;DHT22;4642;51.364;6.788;2024-03-23T02:56:57;6.90;99.90
9215;DHT22;4642;51.364;6.788;2024-03-23T02:59:22;7.00;99.90
9215;DHT22;4642;51.364;6.788;2024-03-23T03:01:48;6.90;99.90
9215;DHT22;4642;51.364;6.788;2024-03-23T03:04:13;6.90;99.90
9215;DHT22;4642;51.364;6.788;2024-03-23T03:06:39;6.80;99.90
9215;DHT22;4642;51.364;6.788;2024-03-23T03:09:06;6.80;99.90
9215;DHT22;4642;51.364;6.788;2024-03-23T03:11:31;6.70;99.90
9215;DHT22;4642;51.364;6.788;2024-03-23T03:13:57;6.80;99.90
9215;DHT22;4642;51.364;6.788;2024-03-23T03:16:25;6.80;99.90
9215;DHT22;4642;51.364;6.788;2024-03-23T03:18:51;6.80;99.90
9215;DHT22;4642;51.364;6.788;2024-03-23T03:21:18;6.80;99.90
9215;DHT22;4642;51.364;6.788;2024-03-23T03:23:44;6.90;99.90
9215;DHT22;4642;51.364;6.788;2024-03-23T03:26:10;6.90;99.90
9215;DHT22;4642;51.364;6.788;2024-03-23T03:28:35;6.90;99.90
9215;DHT22;4642;51.364;6.788;2024-03-23T03:31:01;6.90;99.90
9215;DHT22;4642;51.364;6.788;2024-03-23T03:33:27;6.90;99.90
9215;DHT22;4642;51.364;6.788;2024-03-23T03:35:53;6.90;99.90
9215;DHT22;4642;51.364;6.788;2024-03-23T03:38:19;7.00;99.90
9215;DHT22;4642;51.364;6.788;2024-03-23T03:40:44;7.00;99.90
9215;DHT22;4642;51.364;6.788;2024-03-23T03:43:10;7.00;99.90
9215;DHT22;4642;51.364;6.788;2024-03-23T03:45:36;7.00;99.90
9215;DHT22;4642;51.364;6.788;2024-03-23T03:48:01;6.90;99.90
9215;DHT22;4642;51.364;6.788;2024-03-23T03:50:27;6.90;99.90
9215;DHT22;4642;51.364;6.788;2024-03-23T03:52:52;6.90;99.90
9215;DHT22;4642;51.364;6.788;2024-03-23T03:55:18;6.90;99.90
9215;DHT22;4642;51.364;6.788;2024-03-23T03:57:43;6.80;99.90
9215;DHT22;4642;51.364;6.788;2024-03-23T04:00:09;6.90;99.90
9215;DHT22;4642;51.364;6.788;2024-03-23T04:02:38;6.90;99.90
9215;DHT22;4642;51.364;6.788;2024-03-23T04:05:04;6.90;99.90
9215;DHT22;4642;51.364;6.788;2024-03-23T04:07:30;6.80;99.90
9215;DHT22;4642;51.364;6.788;2024-03-23T04:09:56;6.80;99.90
9215;DHT22;4642;51.364;6.788;2024-03-23T04:12:23;6.80;99.90
9215;DHT22;4642;51.364;6.788;2024-03-23T04:14:48;6.80;99.90
9215;DHT22;4642;51.364;6.788;2024-03-23T04:17:14;6.80;99.90
9215;DHT22;4642;51.364;6.788;2024-03-23T04:19:39;6.70;99.90
9215;DHT22;4642;51.364;6.788;2024-03-23T04:22:05;6.70;99.90
9215;DHT22;4642;51.364;6.788;2024-03-23T04:24:30;6.70;99.90
9215;DHT22;4642;51.364;6.788;2024-03-23T04:26:56;6.60;99.90
9215;DHT22;4642;51.364;6.788;2024-03-23T04:29:22;6.60;99.90
9215;DHT22;4642;51.364;6.788;2024-03-23T04:31:47;6.60;99.90
9215;DHT22;4642;51.364;6.788;2024-03-23T04:34:13;6.50;99.90
9215;DHT22;4642;51.364;6.788;2024-03-23T04:36:38;6.50;99.90
9215;DHT22;4642;51.364;6.788;2024-03-23T04:39:05;6.60;99.90
9215;DHT22;4642;51.364;6.788;2024-03-23T04:41:34;6.40;99.90
9215;DHT22;4642;51.364;6.788;2024-03-23T04:43:59;6.40;99.90
9215;DHT22;4642;51.364;6.788;2024-03-23T04:46:25;6.40;99.90
9215;DHT22;4642;51.364;6.788;2024-03-23T04:48:50;6.30;99.90
9215;DHT22;4642;51.364;6.788;2024-03-23T04:51:25;6.30;99.90
9215;DHT22;4642;51.364;6.788;2024-03-23T04:53:51;6.40;99.90
9215;DHT22;4642;51.364;6.788;2024-03-23T04:56:17;6.30;99.90
9215;DHT22;4642;51.364;6.788;2024-03-23T04:58:44;6.30;99.90
9215;DHT22;4642;51.364;6.788;2024-03-23T05:01:10;6.30;99.90
9215;DHT22;4642;51.364;6.788;2024-03-23T05:03:36;6.30;99.90
9215;DHT22;4642;51.364;6.788;2024-03-23T05:06:01;6.30;99.90
9215;DHT22;4642;51.364;6.788;2024-03-23T05:08:27;6.50;99.90
9215;DHT22;4642;51.364;6.788;2024-03-23T05:10:52;6.30;99.90
9215;DHT22;4642;51.364;6.788;2024-03-23T05:13:18;6.30;99.90
9215;DHT22;4642;51.364;6.788;2024-03-23T05:15:43;6.30;99.90
9215;DHT22;4642;51.364;6.788;2024-03-23T05:18:09;6.30;99.90
9215;DHT22;4642;51.364;6.788;2024-03-23T05:20:35;6.20;99.90
9215;DHT22;4642;51.364;6.788;2024-03-23T05:23:01;6.30;99.90
9215;DHT22;4642;51.364;6.788;2024-03-23T05:25:26;6.30;99.90
9215;DHT22;4642;51.364;6.788;2024-03-23T05:27:52;6.30;99.90
9215;DHT22;4642;51.364;6.788;2024-03-23T05:30:17;6.30;99.90
9215;DHT22;4642;51.364;6.788;2024-03-23T05:32:43;6.30;99.90
9215;DHT22;4642;51.364;6.788;2024-03-23T05:35:10;6.30;99.90
9215;DHT22;4642;51.364;6.788;2024-03-23T05:37:35;6.30;99.90
9215;DHT22;4642;51.364;6.788;2024-03-23T05:40:02;6.30;99.90
9215;DHT22;4642;51.364;6.788;2024-03-23T05:42:29;6.30;99.90
9215;DHT22;4642;51.364;6.788;2024-03-23T05:44:54;6.30;99.90
9215;DHT22;4642;51.364;6.788;2024-03-23T05:47:20;6.30;99.90
9215;DHT22;4642;51.364;6.788;2024-03-23T05:49:46;6.30;99.90
9215;DHT22;4642;51.364;6.788;2024-03-23T05:52:12;6.30;99.90
9215;DHT22;4642;51.364;6.788;2024-03-23T05:54:37;6.30;99.90
9215;DHT22;4642;51.364;6.788;2024-03-23T05:57:03;6.30;99.90
9215;DHT22;4642;51.364;6.788;2024-03-23T05:59:29;6.30;99.90
9215;DHT22;4642;51.364;6.788;2024-03-23T06:01:55;6.30;99.90
9215;DHT22;4642;51.364;6.788;2024-03-23T06:04:20;6.30;99.90
9215;DHT22;4642;51.364;6.788;2024-03-23T06:06:47;6.30;99.90
9215;DHT22;4642;51.364;6.788;2024-03-23T06:09:12;6.30;99.90
9215;DHT22;4642;51.364;6.788;2024-03-23T06:11:38;6.30;99.90
9215;DHT22;4642;51.364;6.788;2024-03-23T06:14:03;6.30;99.90
9215;DHT22;4642;51.364;6.788;2024-03-23T06:16:29;6.30;99.90
9215;DHT22;4642;51.364;6.788;2024-03-23T06:18:56;6.30;99.90
9215;DHT22;4642;51.364;6.788;2024-03-23T06:21:22;6.30;99.90
9215;DHT22;4642;51.364;6.788;2024-03-23T06:23:51;6.30;99.90
9215;DHT22;4642;51.364;6.788;2024-03-23T06:26:21;6.30;99.90
9215;DHT22;4642;51.364;6.788;2024-03-23T06:28:47;6.30;99.90
9215;DHT22;4642;51.364;6.788;2024-03-23T06:31:13;6.20;99.90
9215;DHT22;4642;51.364;6.788;2024-03-23T06:33:39;6.30;99.90
9215;DHT22;4642;51.364;6.788;2024-03-23T06:36:05;6.30;99.90
9215;DHT22;4642;51.364;6.788;2024-03-23T06:38:31;6.30;99.90
9215;DHT22;4642;51.364;6.788;2024-03-23T06:40:56;6.30;99.90
9215;DHT22;4642;51.364;6.788;2024-03-23T06:43:22;6.30;99.90
9215;DHT22;4642;51.364;6.788;2024-03-23T06:45:54;6.30;99.90
9215;DHT22;4642;51.364;6.788;2024-03-23T06:48:20;6.30;99.90
9215;DHT22;4642;51.364;6.788;2024-03-23T06:50:46;6.30;99.90
9215;DHT22;4642;51.364;6.788;2024-03-23T06:53:13;6.30;99.90
9215;DHT22;4642;51.364;6.788;2024-03-23T06:55:38;6.40;99.90
9215;DHT22;4642;51.364;6.788;2024-03-23T06:58:04;6.40;99.90
9215;DHT22;4642;51.364;6.788;2024-03-23T07:00:30;6.40;99.90
9215;DHT22;4642;51.364;6.788;2024-03-23T07:02:55;6.50;99.90
9215;DHT22;4642;51.364;6.788;2024-03-23T07:05:21;6.50;99.90
9215;DHT22;4642;51.364;6.788;2024-03-23T07:07:47;6.50;99.90
9215;DHT22;4642;51.364;6.788;2024-03-23T07:10:12;6.50;99.90
9215;DHT22;4642;51.364;6.788;2024-03-23T07:12:38;6.60;99.90
9215;DHT22;4642;51.364;6.788;2024-03-23T07:15:04;6.60;99.90
9215;DHT22;4642;51.364;6.788;2024-03-23T07:17:30;6.60;99.90
9215;DHT22;4642;51.364;6.788;2024-03-23T07:19:55;6.70;99.90
9215;DHT22;4642;51.364;6.788;2024-03-23T07:22:21;6.70;99.90
9215;DHT22;4642;51.364;6.788;2024-03-23T07:24:47;6.70;99.90
9215;DHT22;4642;51.364;6.788;2024-03-23T07:27:12;6.80;99.90
9215;DHT22;4642;51.364;6.788;2024-03-23T07:29:38;6.80;99.90
9215;DHT22;4642;51.364;6.788;2024-03-23T07:32:03;6.90;99.90
9215;DHT22;4642;51.364;6.788;2024-03-23T07:34:29;7.00;99.90
9215;DHT22;4642;51.364;6.788;2024-03-23T07:36:55;7.00;99.90
9215;DHT22;4642;51.364;6.788;2024-03-23T07:39:20;7.00;99.90
9215;DHT22;4642;51.364;6.788;2024-03-23T07:41:46;7.10;99.90
9215;DHT22;4642;51.364;6.788;2024-03-23T07:44:11;7.10;99.90
9215;DHT22;4642;51.364;6.788;2024-03-23T07:46:37;7.20;99.90
9215;DHT22;4642;51.364;6.788;2024-03-23T07:49:04;7.20;99.90
9215;DHT22;4642;51.364;6.788;2024-03-23T07:51:30;7.30;99.90
9215;DHT22;4642;51.364;6.788;2024-03-23T07:53:55;7.30;99.90
9215;DHT22;4642;51.364;6.788;2024-03-23T07:56:21;7.30;99.90
9215;DHT22;4642;51.364;6.788;2024-03-23T07:58:48;7.40;99.90
9215;DHT22;4642;51.364;6.788;2024-03-23T08:01:17;7.30;99.90
9215;DHT22;4642;51.364;6.788;2024-03-23T08:03:44;7.40;99.90
9215;DHT22;4642;51.364;6.788;2024-03-23T08:06:11;7.40;99.90
9215;DHT22;4642;51.364;6.788;2024-03-23T08:08:38;7.40;99.90
9215;DHT22;4642;51.364;6.788;2024-03-23T08:11:04;7.50;99.90
9215;DHT22;4642;51.364;6.788;2024-03-23T08:13:30;7.60;99.90
9215;DHT22;4642;51.364;6.788;2024-03-23T08:15:59;7.60;99.90
9215;DHT22;4642;51.364;6.788;2024-03-23T08:18:25;7.60;99.90
9215;DHT22;4642;51.364;6.788;2024-03-23T08:21:05;7.70;99.90
9215;DHT22;4642;51.364;6.788;2024-03-23T08:23:32;7.80;99.90
9215;DHT22;4642;51.364;6.788;2024-03-23T08:26:07;7.90;99.90
9215;DHT22;4642;51.364;6.788;2024-03-23T08:28:34;7.90;99.90
9215;DHT22;4642;51.364;6.788;2024-03-23T08:31:18;8.00;99.90
9215;DHT22;4642;51.364;6.788;2024-03-23T08:33:43;8.10;99.90
9215;DHT22;4642;51.364;6.788;2024-03-23T08:36:10;7.90;99.90
9215;DHT22;4642;51.364;6.788;2024-03-23T08:38:38;7.40;99.90
9215;DHT22;4642;51.364;6.788;2024-03-23T08:41:08;7.00;99.90
9215;DHT22;4642;51.364;6.788;2024-03-23T08:43:37;6.80;99.90
9215;DHT22;4642;51.364;6.788;2024-03-23T08:46:09;6.60;99.90
9215;DHT22;4642;51.364;6.788;2024-03-23T08:48:36;6.40;99.90
9215;DHT22;4642;51.364;6.788;2024-03-23T08:51:06;6.30;99.90
9215;DHT22;4642;51.364;6.788;2024-03-23T08:53:32;6.20;99.90
9215;DHT22;4642;51.364;6.788;2024-03-23T08:55:59;6.20;99.90
9215;DHT22;4642;51.364;6.788;2024-03-23T08:58:26;6.20;99.90
9215;DHT22;4642;51.364;6.788;2024-03-23T09:00:52;6.30;99.90
9215;DHT22;4642;51.364;6.788;2024-03-23T09:03:21;6.20;99.90
9215;DHT22;4642;51.364;6.788;2024-03-23T09:05:46;6.30;99.90
9215;DHT22;4642;51.364;6.788;2024-03-23T09:08:12;6.30;99.90
9215;DHT22;4642;51.364;6.788;2024-03-23T09:10:42;6.30;99.90
9215;DHT22;4642;51.364;6.788;2024-03-23T09:13:08;6.40;99.90
9215;DHT22;4642;51.364;6.788;2024-03-23T09:15:46;6.40;99.90
9215;DHT22;4642;51.364;6.788;2024-03-23T09:18:12;6.60;99.90
9215;DHT22;4642;51.364;6.788;2024-03-23T09:20:37;6.70;99.90
9215;DHT22;4642;51.364;6.788;2024-03-23T09:23:04;6.80;99.90
9215;DHT22;4642;51.364;6.788;2024-03-23T09:25:29;7.00;99.90
9215;DHT22;4642;51.364;6.788;2024-03-23T09:27:55;7.20;99.90
9215;DHT22;4642;51.364;6.788;2024-03-23T09:30:20;7.30;99.90
9215;DHT22;4642;51.364;6.788;2024-03-23T09:32:46;7.50;99.90
9215;DHT22;4642;51.364;6.788;2024-03-23T09:35:12;7.50;99.90
9215;DHT22;4642;51.364;6.788;2024-03-23T09:37:40;7.60;99.90
9215;DHT22;4642;51.364;6.788;2024-03-23T09:40:12;7.60;99.90
9215;DHT22;4642;51.364;6.788;2024-03-23T09:42:38;7.60;99.90
9215;DHT22;4642;51.364;6.788;2024-03-23T09:45:11;7.60;99.90
9215;DHT22;4642;51.364;6.788;2024-03-23T09:47:41;7.70;99.90
9215;DHT22;4642;51.364;6.788;2024-03-23T09:50:09;7.70;99.90
9215;DHT22;4642;51.364;6.788;2024-03-23T09:52:35;7.70;99.90
9215;DHT22;4642;51.364;6.788;2024-03-23T09:55:00;7.70;99.90
9215;DHT22;4642;51.364;6.788;2024-03-23T09:57:26;7.80;99.90
9215;DHT22;4642;51.364;6.788;2024-03-23T09:59:51;7.80;99.90
9215;DHT22;4642;51.364;6.788;2024-03-23T10:02:17;7.90;99.90
9215;DHT22;4642;51.364;6.788;2024-03-23T10:04:45;8.00;99.90
9215;DHT22;4642;51.364;6.788;2024-03-23T10:07:15;8.10;99.90
9215;DHT22;4642;51.364;6.788;2024-03-23T10:09:42;8.20;99.90
9215;DHT22;4642;51.364;6.788;2024-03-23T10:12:12;8.30;99.90
9215;DHT22;4642;51.364;6.788;2024-03-23T10:14:40;8.40;99.90
9215;DHT22;4642;51.364;6.788;2024-03-23T10:17:20;8.40;99.90
9215;DHT22;4642;51.364;6.788;2024-03-23T10:19:51;8.30;99.90
9215;DHT22;4642;51.364;6.788;2024-03-23T10:22:23;8.30;99.90
9215;DHT22;4642;51.364;6.788;2024-03-23T10:24:52;8.30;99.90
9215;DHT22;4642;51.364;6.788;2024-03-23T10:27:21;8.30;99.90
9215;DHT22;4642;51.364;6.788;2024-03-23T10:29:48;8.30;99.90
9215;DHT22;4642;51.364;6.788;2024-03-23T10:32:15;8.30;99.90
9215;DHT22;4642;51.364;6.788;2024-03-23T10:34:41;8.30;99.90
9215;DHT22;4642;51.364;6.788;2024-03-23T10:37:07;8.30;99.90
9215;DHT22;4642;51.364;6.788;2024-03-23T10:39:38;8.20;99.90
9215;DHT22;4642;51.364;6.788;2024-03-23T10:42:05;8.00;99.90
9215;DHT22;4642;51.364;6.788;2024-03-23T10:44:31;8.00;99.90
9215;DHT22;4642;51.364;6.788;2024-03-23T10:46:58;7.90;99.90
9215;DHT22;4642;51.364;6.788;2024-03-23T10:49:31;7.50;99.90
9215;DHT22;4642;51.364;6.788;2024-03-23T10:54:27;7.20;99.90
9215;DHT22;4642;51.364;6.788;2024-03-23T10:57:05;7.10;99.90
9215;DHT22;4642;51.364;6.788;2024-03-23T10:59:33;7.00;99.90
9215;DHT22;4642;51.364;6.788;2024-03-23T11:02:00;6.90;99.90
9215;DHT22;4642;51.364;6.788;2024-03-23T11:04:38;6.90;99.90
9215;DHT22;4642;51.364;6.788;2024-03-23T11:09:54;7.00;99.90
9215;DHT22;4642;51.364;6.788;2024-03-23T11:14:49;7.20;99.90
9215;DHT22;4642;51.364;6.788;2024-03-23T11:17:22;7.40;99.90
9215;DHT22;4642;51.364;6.788;2024-03-23T11:19:55;7.50;99.90
9215;DHT22;4642;51.364;6.788;2024-03-23T11:27:46;7.80;99.90
9215;DHT22;4642;51.364;6.788;2024-03-23T11:30:27;8.00;99.90
9215;DHT22;4642;51.364;6.788;2024-03-23T11:32:56;8.10;99.90
9215;DHT22;4642;51.364;6.788;2024-03-23T11:35:30;8.20;99.90
9215;DHT22;4642;51.364;6.788;2024-03-23T11:40:40;8.30;99.90
9215;DHT22;4642;51.364;6.788;2024-03-23T11:43:07;8.40;99.90
9215;DHT22;4642;51.364;6.788;2024-03-23T11:45:38;8.50;99.90
9215;DHT22;4642;51.364;6.788;2024-03-23T11:48:08;8.60;99.90
9215;DHT22;4642;51.364;6.788;2024-03-23T11:50:36;8.70;99.90
9215;DHT22;4642;51.364;6.788;2024-03-23T11:53:11;8.60;99.90
9215;DHT22;4642;51.364;6.788;2024-03-23T11:55:54;8.20;99.90
9215;DHT22;4642;51.364;6.788;2024-03-23T11:58:21;7.50;99.90
9215;DHT22;4642;51.364;6.788;2024-03-23T12:00:51;7.30;99.90
9215;DHT22;4642;51.364;6.788;2024-03-23T12:03:18;7.00;99.90
9215;DHT22;4642;51.364;6.788;2024-03-23T12:05:50;6.90;99.90
9215;DHT22;4642;51.364;6.788;2024-03-23T12:10:50;6.80;99.90
9215;DHT22;4642;51.364;6.788;2024-03-23T12:13:18;6.70;99.90
9215;DHT22;4642;51.364;6.788;2024-03-23T12:15:51;6.70;99.90
9215;DHT22;4642;51.364;6.788;2024-03-23T12:18:17;6.80;99.90
9215;DHT22;4642;51.364;6.788;2024-03-23T12:20:43;7.00;99.90
9215;DHT22;4642;51.364;6.788;2024-03-23T12:23:10;7.10;99.90
9215;DHT22;4642;51.364;6.788;2024-03-23T12:25:37;7.50;99.90
9215;DHT22;4642;51.364;6.788;2024-03-23T12:28:03;7.70;99.90
9215;DHT22;4642;51.364;6.788;2024-03-23T12:30:32;7.90;99.90
9215;DHT22;4642;51.364;6.788;2024-03-23T12:32:58;8.00;99.90
9215;DHT22;4642;51.364;6.788;2024-03-23T12:35:23;8.20;99.90
9215;DHT22;4642;51.364;6.788;2024-03-23T12:37:49;8.30;99.90
9215;DHT22;4642;51.364;6.788;2024-03-23T12:40:14;8.30;99.90
9215;DHT22;4642;51.364;6.788;2024-03-23T12:42:40;8.30;99.90
9215;DHT22;4642;51.364;6.788;2024-03-23T12:45:06;8.30;99.90
9215;DHT22;4642;51.364;6.788;2024-03-23T12:47:31;8.30;99.90
9215;DHT22;4642;51.364;6.788;2024-03-23T12:49:57;8.20;99.90
9215;DHT22;4642;51.364;6.788;2024-03-23T12:52:22;7.70;99.90
9215;DHT22;4642;51.364;6.788;2024-03-23T12:54:54;7.30;99.90
9215;DHT22;4642;51.364;6.788;2024-03-23T12:57:21;6.90;99.90
9215;DHT22;4642;51.364;6.788;2024-03-23T12:59:47;6.90;99.90
9215;DHT22;4642;51.364;6.788;2024-03-23T13:02:16;7.00;99.90
9215;DHT22;4642;51.364;6.788;2024-03-23T13:04:42;7.10;99.90
9215;DHT22;4642;51.364;6.788;2024-03-23T13:07:07;7.20;99.90
9215;DHT22;4642;51.364;6.788;2024-03-23T13:09:33;7.30;99.90
9215;DHT22;4642;51.364;6.788;2024-03-23T13:11:58;7.40;99.90
9215;DHT22;4642;51.364;6.788;2024-03-23T13:14:24;7.50;99.90
9215;DHT22;4642;51.364;6.788;2024-03-23T13:16:50;7.60;99.90
9215;DHT22;4642;51.364;6.788;2024-03-23T13:19:15;7.70;99.90
9215;DHT22;4642;51.364;6.788;2024-03-23T13:21:41;8.10;99.90
9215;DHT22;4642;51.364;6.788;2024-03-23T13:24:06;8.00;99.90
9215;DHT22;4642;51.364;6.788;2024-03-23T13:26:32;7.90;99.90
9215;DHT22;4642;51.364;6.788;2024-03-23T13:28:58;7.80;99.90
9215;DHT22;4642;51.364;6.788;2024-03-23T13:31:24;7.70;99.90
9215;DHT22;4642;51.364;6.788;2024-03-23T13:33:49;7.60;99.90
9215;DHT22;4642;51.364;6.788;2024-03-23T13:36:15;7.60;99.90
9215;DHT22;4642;51.364;6.788;2024-03-23T13:38:40;7.60;99.90
9215;DHT22;4642;51.364;6.788;2024-03-23T13:41:06;7.70;99.90
9215;DHT22;4642;51.364;6.788;2024-03-23T13:43:33;7.80;99.90
9215;DHT22;4642;51.364;6.788;2024-03-23T13:45:59;8.00;99.90
9215;DHT22;4642;51.364;6.788;2024-03-23T13:48:26;8.10;99.90
9215;DHT22;4642;51.364;6.788;2024-03-23T13:51:03;8.30;99.90
9215;DHT22;4642;51.364;6.788;2024-03-23T13:53:29;8.40;99.90
9215;DHT22;4642;51.364;6.788;2024-03-23T13:55:55;8.60;99.90
9215;DHT22;4642;51.364;6.788;2024-03-23T13:58:21;8.70;99.90
9215;DHT22;4642;51.364;6.788;2024-03-23T14:00:46;8.70;99.90
9215;DHT22;4642;51.364;6.788;2024-03-23T14:03:13;8.70;99.90
9215;DHT22;4642;51.364;6.788;2024-03-23T14:05:39;8.70;99.90
9215;DHT22;4642;51.364;6.788;2024-03-23T14:08:06;8.70;99.90
9215;DHT22;4642;51.364;6.788;2024-03-23T14:10:32;8.70;99.90
9215;DHT22;4642;51.364;6.788;2024-03-23T14:12:58;8.80;99.90
9215;DHT22;4642;51.364;6.788;2024-03-23T14:15:26;8.90;99.90
9215;DHT22;4642;51.364;6.788;2024-03-23T14:17:52;8.80;99.90
9215;DHT22;4642;51.364;6.788;2024-03-23T14:20:17;8.70;99.90
9215;DHT22;4642;51.364;6.788;2024-03-23T14:22:43;8.80;99.90
9215;DHT22;4642;51.364;6.788;2024-03-23T14:25:09;8.90;99.90
9215;DHT22;4642;51.364;6.788;2024-03-23T14:27:35;8.90;99.90
9215;DHT22;4642;51.364;6.788;2024-03-23T14:30:04;9.00;99.90
9215;DHT22;4642;51.364;6.788;2024-03-23T14:32:30;9.00;99.90
9215;DHT22;4642;51.364;6.788;2024-03-23T14:35:00;8.90;99.90
9215;DHT22;4642;51.364;6.788;2024-03-23T14:37:25;8.70;99.90
9215;DHT22;4642;51.364;6.788;2024-03-23T14:39:51;8.60;99.90
9215;DHT22;4642;51.364;6.788;2024-03-23T14:42:16;8.60;99.90
9215;DHT22;4642;51.364;6.788;2024-03-23T14:44:42;8.50;99.90
9215;DHT22;4642;51.364;6.788;2024-03-23T14:47:08;8.40;99.90
9215;DHT22;4642;51.364;6.788;2024-03-23T14:49:33;8.40;99.90
9215;DHT22;4642;51.364;6.788;2024-03-23T14:51:59;8.30;99.90
9215;DHT22;4642;51.364;6.788;2024-03-23T14:54:24;8.40;99.90
9215;DHT22;4642;51.364;6.788;2024-03-23T14:56:50;8.50;99.90
9215;DHT22;4642;51.364;6.788;2024-03-23T14:59:15;8.60;99.90
9215;DHT22;4642;51.364;6.788;2024-03-23T15:01:41;8.80;99.90
9215;DHT22;4642;51.364;6.788;2024-03-23T15:04:07;9.00;99.90
9215;DHT22;4642;51.364;6.788;2024-03-23T15:06:33;9.20;99.90
9215;DHT22;4642;51.364;6.788;2024-03-23T15:08:59;9.30;99.90
9215;DHT22;4642;51.364;6.788;2024-03-23T15:11:24;9.30;99.90
9215;DHT22;4642;51.364;6.788;2024-03-23T15:13:50;9.50;99.90
9215;DHT22;4642;51.364;6.788;2024-03-23T15:16:19;9.70;99.90
9215;DHT22;4642;51.364;6.788;2024-03-23T15:18:47;9.80;99.90
9215;DHT22;4642;51.364;6.788;2024-03-23T15:21:14;10.20;99.90
9215;DHT22;4642;51.364;6.788;2024-03-23T15:23:45;10.00;99.90
9215;DHT22;4642;51.364;6.788;2024-03-23T15:26:10;9.90;99.90
9215;DHT22;4642;51.364;6.788;2024-03-23T15:28:36;9.90;99.90
9215;DHT22;4642;51.364;6.788;2024-03-23T15:31:20;9.80;99.90
9215;DHT22;4642;51.364;6.788;2024-03-23T15:33:45;9.40;99.90
9215;DHT22;4642;51.364;6.788;2024-03-23T15:36:11;9.40;99.90
9215;DHT22;4642;51.364;6.788;2024-03-23T15:38:37;9.20;99.90
9215;DHT22;4642;51.364;6.788;2024-03-23T15:41:04;9.30;99.90
9215;DHT22;4642;51.364;6.788;2024-03-23T15:43:30;9.50;99.90
9215;DHT22;4642;51.364;6.788;2024-03-23T15:46:01;9.50;99.90
9215;DHT22;4642;51.364;6.788;2024-03-23T15:48:27;9.50;99.90
9215;DHT22;4642;51.364;6.788;2024-03-23T15:51:00;9.60;99.90
9215;DHT22;4642;51.364;6.788;2024-03-23T15:53:26;9.60;99.90
9215;DHT22;4642;51.364;6.788;2024-03-23T15:55:55;9.40;99.90
9215;DHT22;4642;51.364;6.788;2024-03-23T15:58:22;9.30;99.90
9215;DHT22;4642;51.364;6.788;2024-03-23T16:00:57;9.10;99.90
9215;DHT22;4642;51.364;6.788;2024-03-23T16:03:23;8.80;99.90
9215;DHT22;4642;51.364;6.788;2024-03-23T16:05:59;8.90;99.90
9215;DHT22;4642;51.364;6.788;2024-03-23T16:08:27;9.10;99.90
9215;DHT22;4642;51.364;6.788;2024-03-23T16:10:53;9.40;99.90
9215;DHT22;4642;51.364;6.788;2024-03-23T16:13:19;9.70;99.90
9215;DHT22;4642;51.364;6.788;2024-03-23T16:15:46;9.90;99.90
9215;DHT22;4642;51.364;6.788;2024-03-23T16:18:19;10.00;99.90
9215;DHT22;4642;51.364;6.788;2024-03-23T16:20:55;10.00;99.90
9215;DHT22;4642;51.364;6.788;2024-03-23T16:23:21;9.90;99.90
9215;DHT22;4642;51.364;6.788;2024-03-23T16:25:56;10.10;99.90
9215;DHT22;4642;51.364;6.788;2024-03-23T16:28:29;9.90;99.90
9215;DHT22;4642;51.364;6.788;2024-03-23T16:31:03;9.70;99.90
9215;DHT22;4642;51.364;6.788;2024-03-23T16:33:30;10.00;99.90
9215;DHT22;4642;51.364;6.788;2024-03-23T16:35:58;10.00;99.90
9215;DHT22;4642;51.364;6.788;2024-03-23T16:38:23;10.10;99.90
9215;DHT22;4642;51.364;6.788;2024-03-23T16:43:33;9.90;99.90
9215;DHT22;4642;51.364;6.788;2024-03-23T16:46:04;9.90;99.90
9215;DHT22;4642;51.364;6.788;2024-03-23T16:48:33;10.10;99.90
9215;DHT22;4642;51.364;6.788;2024-03-23T16:51:02;9.80;99.90
9215;DHT22;4642;51.364;6.788;2024-03-23T16:53:31;9.60;99.90
9215;DHT22;4642;51.364;6.788;2024-03-23T16:55:58;9.30;99.90
9215;DHT22;4642;51.364;6.788;2024-03-23T16:58:25;9.10;99.90
9215;DHT22;4642;51.364;6.788;2024-03-23T17:00:50;8.80;99.90
9215;DHT22;4642;51.364;6.788;2024-03-23T17:03:18;8.40;99.90
9215;DHT22;4642;51.364;6.788;2024-03-23T17:05:45;8.30;99.90
9215;DHT22;4642;51.364;6.788;2024-03-23T17:08:11;8.10;99.90
9215;DHT22;4642;51.364;6.788;2024-03-23T17:10:37;8.10;99.90
9215;DHT22;4642;51.364;6.788;2024-03-23T17:13:02;8.00;99.90
9215;DHT22;4642;51.364;6.788;2024-03-23T17:15:28;7.90;99.90
9215;DHT22;4642;51.364;6.788;2024-03-23T17:17:54;7.90;99.90
9215;DHT22;4642;51.364;6.788;2024-03-23T17:20:19;7.80;99.90
9215;DHT22;4642;51.364;6.788;2024-03-23T17:22:45;7.70;99.90
9215;DHT22;4642;51.364;6.788;2024-03-23T17:25:10;7.50;99.90
9215;DHT22;4642;51.364;6.788;2024-03-23T17:27:37;7.30;99.90
9215;DHT22;4642;51.364;6.788;2024-03-23T17:30:03;7.20;99.90